createdAt,value
2018-06-21T00:01:30.160Z,68.58
2018-06-21T00:03:59.115Z,68.73
2018-06-21T00:06:27.876Z,68.86
2018-06-21T00:08:56.649Z,69.03
2018-06-21T00:11:25.657Z,69.00
2018-06-21T00:13:54.414Z,69.08
2018-06-21T00:16:23.525Z,69.12
2018-06-21T00:18:52.225Z,69.17
2018-06-21T00:21:20.980Z,69.45
2018-06-21T00:23:49.828Z,69.52
2018-06-21T00:26:18.648Z,69.56
2018-06-21T00:28:47.410Z,69.52
2018-06-21T00:31:16.222Z,69.76
2018-06-21T00:33:45.199Z,70.12
2018-06-21T00:36:14.013Z,70.12
2018-06-21T00:38:42.681Z,70.42
2018-06-21T00:41:11.571Z,70.81
2018-06-21T00:43:40.293Z,70.84
2018-06-21T00:46:10.922Z,70.86
2018-06-21T00:48:39.648Z,71.02
2018-06-21T00:51:08.666Z,70.99
2018-06-21T00:53:37.689Z,70.84
2018-06-21T00:56:15.661Z,71.01
2018-06-21T00:58:45.361Z,70.71
2018-06-21T01:01:14.874Z,70.72
2018-06-21T01:03:43.732Z,70.85
2018-06-21T01:06:12.848Z,70.49
2018-06-21T01:08:41.663Z,70.87
2018-06-21T01:11:10.387Z,70.95
2018-06-21T01:13:39.366Z,70.74
2018-06-21T01:16:08.047Z,70.81
2018-06-21T01:18:36.924Z,69.63
2018-06-21T01:21:06.093Z,70.09
2018-06-21T01:23:34.882Z,69.50
2018-06-21T01:26:03.712Z,69.38
2018-06-21T01:28:32.787Z,69.35
2018-06-21T01:31:01.535Z,69.31
2018-06-21T01:33:30.364Z,69.23
2018-06-21T01:35:59.206Z,69.34
2018-06-21T01:38:28.117Z,69.25
2018-06-21T01:40:56.929Z,69.27
2018-06-21T01:43:25.835Z,69.26
2018-06-21T01:45:54.725Z,69.43
2018-06-21T01:48:23.697Z,69.33
2018-06-21T01:50:52.585Z,69.27
2018-06-21T01:53:21.400Z,68.51
2018-06-21T01:55:50.203Z,69.33
2018-06-21T01:58:19.181Z,69.24
2018-06-21T02:00:48.156Z,69.45
2018-06-21T02:03:17.171Z,69.52
2018-06-21T02:05:46.338Z,69.62
2018-06-21T02:08:15.616Z,69.34
2018-06-21T02:10:44.473Z,69.92
2018-06-21T02:13:13.351Z,69.92
2018-06-21T02:15:42.255Z,70.42
2018-06-21T02:18:11.253Z,69.98
2018-06-21T02:20:40.170Z,70.25
2018-06-21T02:23:08.985Z,70.51
2018-06-21T02:25:38.700Z,71.20
2018-06-21T02:28:07.528Z,70.68
2018-06-21T02:30:36.408Z,70.78
2018-06-21T02:33:05.082Z,70.49
2018-06-21T02:35:33.903Z,70.76
2018-06-21T02:38:02.658Z,71.37
2018-06-21T02:40:31.484Z,70.99
2018-06-21T02:43:00.244Z,71.19
2018-06-21T02:45:29.113Z,71.11
2018-06-21T02:47:58.329Z,71.45
2018-06-21T02:50:27.197Z,71.50
2018-06-21T02:52:55.997Z,71.31
2018-06-21T02:55:24.803Z,71.36
2018-06-21T02:57:53.616Z,71.30
2018-06-21T03:00:22.361Z,71.22
2018-06-21T03:02:51.191Z,71.47
2018-06-21T03:05:20.055Z,71.75
2018-06-21T03:07:48.714Z,71.82
2018-06-21T03:10:17.559Z,71.74
2018-06-21T03:12:46.407Z,72.11
2018-06-21T03:15:15.301Z,72.04
2018-06-21T03:17:44.102Z,72.09
2018-06-21T03:20:13.078Z,71.86
2018-06-21T03:22:42.218Z,71.98
2018-06-21T03:25:10.931Z,71.86
2018-06-21T03:27:39.690Z,71.40
2018-06-21T03:30:08.446Z,71.71
2018-06-21T03:32:37.118Z,71.41
2018-06-21T03:35:06.087Z,71.29
2018-06-21T03:37:34.811Z,71.20
2018-06-21T03:40:03.926Z,71.13
2018-06-21T03:42:33.106Z,70.81
2018-06-21T03:45:02.243Z,70.60
2018-06-21T03:47:31.295Z,70.51
2018-06-21T03:50:00.295Z,70.32
2018-06-21T03:52:29.090Z,70.30
2018-06-21T03:54:57.806Z,70.24
2018-06-21T03:57:26.716Z,69.83
2018-06-21T03:59:55.739Z,69.83
2018-06-21T04:02:24.578Z,69.54
2018-06-21T04:04:53.397Z,69.71
2018-06-21T04:07:22.165Z,69.62
2018-06-21T04:09:50.950Z,69.49
2018-06-21T04:12:19.738Z,69.34
2018-06-21T04:14:48.736Z,69.77
2018-06-21T04:17:17.624Z,69.79
2018-06-21T04:19:46.532Z,69.78
2018-06-21T04:22:15.394Z,69.27
2018-06-21T04:24:44.151Z,68.42
2018-06-21T04:27:13.114Z,68.49
2018-06-21T04:29:42.200Z,68.14
2018-06-21T04:32:10.954Z,67.10
2018-06-21T04:34:39.810Z,67.71
2018-06-21T04:37:08.772Z,67.80
2018-06-21T04:39:37.741Z,67.20
2018-06-21T04:42:06.606Z,66.75
2018-06-21T04:44:35.543Z,66.40
2018-06-21T04:47:04.547Z,66.44
2018-06-21T04:49:33.916Z,66.69
2018-06-21T04:52:02.832Z,66.28
2018-06-21T04:54:31.765Z,66.14
2018-06-21T04:57:00.634Z,65.84
2018-06-21T04:59:29.379Z,65.74
2018-06-21T05:01:58.193Z,65.61
2018-06-21T05:04:26.851Z,65.73
2018-06-21T05:06:55.915Z,65.86
2018-06-21T05:09:24.581Z,65.36
2018-06-21T05:11:53.313Z,65.49
2018-06-21T05:14:22.112Z,65.50
2018-06-21T05:16:50.850Z,65.91
2018-06-21T05:19:19.633Z,65.27
2018-06-21T05:21:48.449Z,65.03
2018-06-21T05:24:17.579Z,65.18
2018-06-21T05:26:46.337Z,65.40
2018-06-21T05:29:15.479Z,65.50
2018-06-21T05:31:44.309Z,65.05
2018-06-21T05:34:13.795Z,64.58
2018-06-21T05:36:42.547Z,64.70
2018-06-21T05:39:12.335Z,64.03
2018-06-21T05:41:41.445Z,63.87
2018-06-21T05:44:10.529Z,63.51
2018-06-21T05:46:39.534Z,63.36
2018-06-21T05:49:08.826Z,62.82
2018-06-21T05:51:37.704Z,62.28
2018-06-21T05:54:06.927Z,62.16
2018-06-21T05:56:35.964Z,62.16
2018-06-21T05:59:04.908Z,62.36
2018-06-21T06:01:33.802Z,62.40
2018-06-21T06:04:02.761Z,62.11
2018-06-21T06:06:31.650Z,62.19
2018-06-21T06:09:00.460Z,62.41
2018-06-21T06:11:29.566Z,62.44
2018-06-21T06:13:58.463Z,62.05
2018-06-21T06:16:27.294Z,62.05
2018-06-21T06:18:56.516Z,62.25
2018-06-21T06:21:25.461Z,61.66
2018-06-21T06:23:54.462Z,61.39
2018-06-21T06:26:23.245Z,61.69
2018-06-21T06:28:52.240Z,62.23
2018-06-21T06:31:21.246Z,61.75
2018-06-21T06:33:50.014Z,61.69
2018-06-21T06:36:18.774Z,61.45
2018-06-21T06:38:47.631Z,61.31
2018-06-21T06:41:16.564Z,60.92
2018-06-21T06:43:45.682Z,60.76
2018-06-21T06:46:14.666Z,61.28
2018-06-21T06:48:43.300Z,61.08
2018-06-21T06:51:12.101Z,60.94
2018-06-21T06:53:40.958Z,60.63
2018-06-21T06:56:10.244Z,60.47
2018-06-21T06:58:39.155Z,60.57
2018-06-21T07:01:08.428Z,60.41
2018-06-21T07:03:37.616Z,60.75
2018-06-21T07:06:06.458Z,60.00
2018-06-21T07:08:35.281Z,59.99
2018-06-21T07:11:04.486Z,59.96
2018-06-21T07:13:33.266Z,59.96
2018-06-21T07:16:02.107Z,59.56
2018-06-21T07:18:30.976Z,59.29
2018-06-21T07:20:59.739Z,59.43
2018-06-21T07:23:28.783Z,56.89
2018-06-21T07:25:57.645Z,56.61
2018-06-21T07:28:26.690Z,57.45
2018-06-21T07:30:55.856Z,55.54
2018-06-21T07:33:24.668Z,55.99
2018-06-21T07:35:53.674Z,54.99
2018-06-21T07:38:22.583Z,53.44
2018-06-21T07:40:51.727Z,52.95
2018-06-21T07:43:20.575Z,52.95
2018-06-21T07:45:49.435Z,52.50
2018-06-21T07:48:18.333Z,52.40
2018-06-21T07:50:47.298Z,52.17
2018-06-21T07:53:16.203Z,52.46
2018-06-21T07:55:45.394Z,51.68
2018-06-21T07:58:14.473Z,51.47
2018-06-21T08:00:43.399Z,51.34
2018-06-21T08:03:12.335Z,51.42
2018-06-21T08:05:41.251Z,50.97
2018-06-21T08:08:10.389Z,50.10
2018-06-21T08:10:39.122Z,50.33
2018-06-21T08:13:07.990Z,50.76
2018-06-21T08:15:36.994Z,50.06
2018-06-21T08:18:05.983Z,50.18
2018-06-21T08:20:34.859Z,50.64
2018-06-21T08:23:03.635Z,50.24
2018-06-21T08:25:32.667Z,50.23
2018-06-21T08:28:01.651Z,50.56
2018-06-21T08:30:30.519Z,51.30
2018-06-21T08:32:59.761Z,50.99
2018-06-21T08:35:28.764Z,50.12
2018-06-21T08:37:57.740Z,49.79
2018-06-21T08:40:26.844Z,49.90
2018-06-21T08:42:56.248Z,48.86
2018-06-21T08:45:25.143Z,49.00
2018-06-21T08:47:53.971Z,47.96
2018-06-21T08:50:23.207Z,46.64
2018-06-21T08:52:52.258Z,46.50
2018-06-21T08:55:21.257Z,46.65
2018-06-21T08:57:50.137Z,46.09
2018-06-21T09:00:18.973Z,46.87
2018-06-21T09:02:48.275Z,46.80
2018-06-21T09:05:17.250Z,45.97
2018-06-21T09:07:46.023Z,46.35
2018-06-21T09:10:14.806Z,46.30
2018-06-21T09:12:43.829Z,45.17
2018-06-21T09:15:12.867Z,44.88
2018-06-21T09:17:42.070Z,44.53
2018-06-21T09:20:11.063Z,44.36
2018-06-21T09:22:40.287Z,44.05
2018-06-21T09:25:09.279Z,44.22
2018-06-21T09:27:38.091Z,43.99
2018-06-21T09:30:07.037Z,43.87
2018-06-21T09:32:35.957Z,44.24
2018-06-21T09:35:04.924Z,44.41
2018-06-21T09:37:39.148Z,44.15
2018-06-21T09:40:13.589Z,44.57
2018-06-21T09:42:47.481Z,43.51
2018-06-21T09:45:21.513Z,43.50
2018-06-21T09:47:55.802Z,42.11
2018-06-21T09:50:24.710Z,42.16
2018-06-21T09:52:53.898Z,42.37
2018-06-21T09:55:23.218Z,41.88
2018-06-21T09:57:52.225Z,40.91
2018-06-21T10:00:26.422Z,40.08
2018-06-21T10:02:55.465Z,40.67
2018-06-21T10:05:24.407Z,40.64
2018-06-21T10:07:53.301Z,39.26
2018-06-21T10:10:22.084Z,39.13
2018-06-21T10:12:51.314Z,40.28
2018-06-21T10:15:20.190Z,39.21
2018-06-21T10:17:49.154Z,37.60
2018-06-21T10:20:18.270Z,38.40
2018-06-21T10:22:47.186Z,39.23
2018-06-21T10:25:15.915Z,39.51
2018-06-21T10:27:44.937Z,40.46
2018-06-21T10:30:14.478Z,41.19
2018-06-21T10:32:44.621Z,41.44
2018-06-21T10:35:13.805Z,41.94
2018-06-21T10:37:42.881Z,42.18
2018-06-21T10:40:12.068Z,41.25
2018-06-21T10:42:41.243Z,42.02
2018-06-21T10:45:10.455Z,42.94
2018-06-21T10:47:39.416Z,43.78
2018-06-21T10:50:08.505Z,44.97
2018-06-21T10:52:37.526Z,45.06
2018-06-21T10:55:06.419Z,44.91
2018-06-21T10:57:35.353Z,44.72
2018-06-21T11:00:04.481Z,44.24
2018-06-21T11:02:33.354Z,42.46
2018-06-21T11:05:02.826Z,39.12
2018-06-21T11:07:39.768Z,36.97
2018-06-21T11:10:09.082Z,34.93
2018-06-21T11:12:38.102Z,35.28
2018-06-21T11:15:07.004Z,34.28
2018-06-21T11:17:35.901Z,35.12
2018-06-21T11:20:04.887Z,35.79
2018-06-21T11:22:33.715Z,35.97
2018-06-21T11:25:02.918Z,36.69
2018-06-21T11:27:31.781Z,36.90
2018-06-21T11:30:00.501Z,35.81
2018-06-21T11:32:29.327Z,35.83
2018-06-21T11:34:58.077Z,36.08
2018-06-21T11:37:26.806Z,35.69
2018-06-21T11:39:55.672Z,36.69
2018-06-21T11:42:24.652Z,36.89
2018-06-21T11:44:54.399Z,36.19
2018-06-21T11:47:24.015Z,36.97
2018-06-21T11:49:53.738Z,38.33
2018-06-21T11:52:23.488Z,38.48
2018-06-21T11:54:52.414Z,37.20
2018-06-21T11:57:21.287Z,36.24
2018-06-21T11:59:50.131Z,36.68
2018-06-21T12:02:20.583Z,36.56
2018-06-21T12:04:49.595Z,35.02
2018-06-21T12:07:19.230Z,34.27
2018-06-21T12:09:48.629Z,35.34
2018-06-21T12:12:17.931Z,34.83
2018-06-21T12:14:47.195Z,36.07
2018-06-21T12:17:16.012Z,36.21
2018-06-21T12:19:44.944Z,36.40
2018-06-21T12:22:14.105Z,35.33
2018-06-21T12:24:43.199Z,35.57
2018-06-21T12:27:12.072Z,35.90
2018-06-21T12:29:41.444Z,35.48
2018-06-21T12:32:10.302Z,34.42
2018-06-21T12:34:47.084Z,34.54
2018-06-21T12:37:15.817Z,34.08
2018-06-21T12:39:48.494Z,32.75
2018-06-21T12:42:17.797Z,33.20
2018-06-21T12:44:47.247Z,33.26
2018-06-21T12:47:16.167Z,34.55
2018-06-21T12:49:45.510Z,34.11
2018-06-21T12:52:14.434Z,33.78
2018-06-21T12:54:43.594Z,32.57
2018-06-21T12:57:12.730Z,32.87
2018-06-21T12:59:41.608Z,33.80
2018-06-21T13:02:10.545Z,34.16
2018-06-21T13:04:39.497Z,34.36
2018-06-21T13:07:08.333Z,34.16
2018-06-21T13:09:48.126Z,34.57
2018-06-21T13:12:29.182Z,34.59
2018-06-21T13:14:58.295Z,35.16
2018-06-21T13:17:28.417Z,34.88
2018-06-21T13:19:57.922Z,35.84
2018-06-21T13:22:27.430Z,36.53
2018-06-21T13:24:56.233Z,37.24
2018-06-21T13:27:25.041Z,36.97
2018-06-21T13:29:53.815Z,37.47
2018-06-21T13:32:22.727Z,38.55
2018-06-21T13:34:51.568Z,38.21
2018-06-21T13:37:20.702Z,38.59
2018-06-21T13:39:49.486Z,38.50
2018-06-21T13:42:18.498Z,38.23
2018-06-21T13:44:47.527Z,37.93
2018-06-21T13:47:16.502Z,39.30
2018-06-21T13:49:45.484Z,39.29
2018-06-21T13:52:14.405Z,40.28
2018-06-21T13:54:43.410Z,40.89
2018-06-21T13:57:12.398Z,42.03
2018-06-21T13:59:41.321Z,41.55
2018-06-21T14:02:10.211Z,44.52
2018-06-21T14:04:39.446Z,45.68
2018-06-21T14:07:09.914Z,45.75
2018-06-21T14:09:38.877Z,47.39
2018-06-21T14:12:07.775Z,47.52
2018-06-21T14:14:36.572Z,47.40
2018-06-21T14:17:05.818Z,47.62
2018-06-21T14:19:34.810Z,47.96
2018-06-21T14:22:03.742Z,49.14
2018-06-21T14:24:32.665Z,48.17
2018-06-21T14:27:01.593Z,48.87
2018-06-21T14:29:30.341Z,48.38
2018-06-21T14:31:59.205Z,48.22
2018-06-21T14:34:28.626Z,46.98
2018-06-21T14:36:57.492Z,47.41
2018-06-21T14:39:26.347Z,48.21
2018-06-21T14:41:55.253Z,48.93
2018-06-21T14:44:24.153Z,48.82
2018-06-21T14:46:53.045Z,48.42
2018-06-21T14:49:21.923Z,48.03
2018-06-21T14:51:51.227Z,48.85
2018-06-21T14:54:19.915Z,47.90
2018-06-21T14:56:48.945Z,47.33
2018-06-21T14:59:17.876Z,47.25
2018-06-21T15:01:47.085Z,47.81
2018-06-21T15:04:15.978Z,49.09
2018-06-21T15:06:44.808Z,49.38
2018-06-21T15:09:14.515Z,48.66
2018-06-21T15:11:43.982Z,49.86
2018-06-21T15:14:12.835Z,49.66
2018-06-21T15:16:41.911Z,48.76
2018-06-21T15:19:12.017Z,49.06
2018-06-21T15:21:41.053Z,49.07
2018-06-21T15:24:09.886Z,48.35
2018-06-21T15:26:38.651Z,48.31
2018-06-21T15:29:07.586Z,47.91
2018-06-21T15:31:36.483Z,47.68
2018-06-21T15:34:06.171Z,47.96
2018-06-21T15:36:35.457Z,47.78
2018-06-21T15:39:13.892Z,48.28
2018-06-21T15:41:43.163Z,47.72
2018-06-21T15:44:12.255Z,47.47
2018-06-21T15:46:41.057Z,47.20
2018-06-21T15:49:09.947Z,47.86
2018-06-21T15:51:39.278Z,47.80
2018-06-21T15:54:09.172Z,48.05
2018-06-21T15:56:38.018Z,49.10
2018-06-21T15:59:07.063Z,50.04
2018-06-21T16:01:35.909Z,50.32
2018-06-21T16:04:04.746Z,51.12
2018-06-21T16:06:34.247Z,51.16
2018-06-21T16:09:03.407Z,50.96
2018-06-21T16:11:32.420Z,51.37
2018-06-21T16:14:01.542Z,52.26
2018-06-21T16:16:30.385Z,53.00
2018-06-21T16:18:59.467Z,52.63
2018-06-21T16:21:28.498Z,53.00
2018-06-21T16:23:57.388Z,52.67
2018-06-21T16:26:26.357Z,51.70
2018-06-21T16:28:55.137Z,51.53
2018-06-21T16:31:24.134Z,50.43
2018-06-21T16:33:53.014Z,48.44
2018-06-21T16:36:21.971Z,47.93
2018-06-21T16:38:51.495Z,47.28
2018-06-21T16:41:20.599Z,46.78
2018-06-21T16:43:49.351Z,47.08
2018-06-21T16:46:18.131Z,46.82
2018-06-21T16:48:47.479Z,46.70
2018-06-21T16:51:16.570Z,45.44
2018-06-21T16:53:45.437Z,45.03
2018-06-21T16:56:14.680Z,43.17
2018-06-21T16:58:43.718Z,42.59
2018-06-21T17:01:12.537Z,42.22
2018-06-21T17:03:41.544Z,41.83
2018-06-21T17:06:10.426Z,41.77
2018-06-21T17:08:39.221Z,42.07
2018-06-21T17:11:08.039Z,41.50
2018-06-21T17:13:37.004Z,40.28
2018-06-21T17:16:05.819Z,39.09
2018-06-21T17:18:35.248Z,38.46
2018-06-21T17:21:04.233Z,38.10
2018-06-21T17:23:33.262Z,38.06
2018-06-21T17:26:02.439Z,38.02
2018-06-21T17:28:31.305Z,37.20
2018-06-21T17:31:00.543Z,37.03
2018-06-21T17:33:29.426Z,36.92
2018-06-21T17:35:58.296Z,36.76
2018-06-21T17:38:27.660Z,36.88
2018-06-21T17:40:56.658Z,37.16
2018-06-21T17:43:25.726Z,37.04
2018-06-21T17:45:54.609Z,36.76
2018-06-21T17:48:24.312Z,34.64
2018-06-21T17:50:53.509Z,32.67
2018-06-21T17:53:22.657Z,32.15
2018-06-21T17:55:51.974Z,31.00
2018-06-21T17:58:22.105Z,30.13
2018-06-21T18:00:51.468Z,29.90
2018-06-21T18:03:21.035Z,30.25
2018-06-21T18:05:50.929Z,30.15
2018-06-21T18:08:20.463Z,29.76
2018-06-21T18:10:49.342Z,30.37
2018-06-21T18:13:18.193Z,29.82
2018-06-21T18:15:47.111Z,28.83
2018-06-21T18:18:15.940Z,28.34
2018-06-21T18:20:44.971Z,29.69
2018-06-21T18:23:13.887Z,30.11
2018-06-21T18:25:42.804Z,30.91
2018-06-21T18:28:11.898Z,31.21
2018-06-21T18:30:41.394Z,32.30
2018-06-21T18:33:10.500Z,32.71
2018-06-21T18:35:39.619Z,32.99
2018-06-21T18:38:08.733Z,33.45
2018-06-21T18:40:38.077Z,33.74
2018-06-21T18:43:07.185Z,34.18
2018-06-21T18:45:36.231Z,34.83
2018-06-21T18:48:05.536Z,35.06
2018-06-21T18:50:34.505Z,35.09
2018-06-21T18:53:03.776Z,35.39
2018-06-21T18:55:32.661Z,35.72
2018-06-21T18:58:01.586Z,35.84
2018-06-21T19:00:31.724Z,35.66
2018-06-21T19:03:00.471Z,35.67
2018-06-21T19:05:30.380Z,35.91
2018-06-21T19:08:04.862Z,35.99
2018-06-21T19:10:39.353Z,36.07
2018-06-21T19:13:08.614Z,35.82
2018-06-21T19:15:37.570Z,35.70
2018-06-21T19:18:06.395Z,35.33
2018-06-21T19:20:35.718Z,34.66
2018-06-21T19:23:04.771Z,34.65
2018-06-21T19:25:33.532Z,34.89
2018-06-21T19:28:02.290Z,34.65
2018-06-21T19:30:31.254Z,34.63
2018-06-21T19:33:00.118Z,34.19
2018-06-21T19:35:29.112Z,33.47
2018-06-21T19:37:58.187Z,33.31
2018-06-21T19:40:27.206Z,33.61
2018-06-21T19:42:56.106Z,33.44
2018-06-21T19:45:25.325Z,33.38
2018-06-21T19:47:54.414Z,33.14
2018-06-21T19:50:24.581Z,33.74
2018-06-21T19:52:53.570Z,33.76
2018-06-21T19:55:23.587Z,33.45
2018-06-21T19:57:52.503Z,33.75
2018-06-21T20:00:21.484Z,33.95
2018-06-21T20:02:55.690Z,33.82
2018-06-21T20:05:24.354Z,33.91
2018-06-21T20:07:53.314Z,34.33
2018-06-21T20:10:22.239Z,34.68
2018-06-21T20:12:51.210Z,34.92
2018-06-21T20:15:20.436Z,35.05
2018-06-21T20:17:49.481Z,35.29
2018-06-21T20:20:23.722Z,35.38
2018-06-21T20:22:52.654Z,35.86
2018-06-21T20:25:21.741Z,35.63
2018-06-21T20:27:50.774Z,35.64
2018-06-21T20:30:19.752Z,35.22
2018-06-21T20:32:48.812Z,35.50
2018-06-21T20:35:17.791Z,35.41
2018-06-21T20:37:46.895Z,35.09
2018-06-21T20:40:15.685Z,35.60
2018-06-21T20:42:44.722Z,35.68
2018-06-21T20:45:13.906Z,36.00
2018-06-21T20:47:42.738Z,35.94
2018-06-21T20:50:11.760Z,36.27
2018-06-21T20:52:40.608Z,36.22
2018-06-21T20:55:09.437Z,36.38
2018-06-21T20:57:38.521Z,36.65
2018-06-21T21:00:07.277Z,37.04
2018-06-21T21:02:36.053Z,36.86
2018-06-21T21:05:06.349Z,37.40
2018-06-21T21:07:35.346Z,37.72
2018-06-21T21:10:05.957Z,37.76
2018-06-21T21:12:34.957Z,37.62
2018-06-21T21:15:05.282Z,38.08
2018-06-21T21:17:34.701Z,38.02
2018-06-21T21:20:04.498Z,38.04
2018-06-21T21:22:33.630Z,38.36
2018-06-21T21:25:02.479Z,38.39
2018-06-21T21:27:31.203Z,38.70
2018-06-21T21:29:59.976Z,38.91
2018-06-21T21:32:28.821Z,39.18
2018-06-21T21:34:58.446Z,38.80
2018-06-21T21:37:28.098Z,38.52
2018-06-21T21:39:59.917Z,38.94
2018-06-21T21:42:29.657Z,38.88
2018-06-21T21:44:58.427Z,38.93
2018-06-21T21:47:27.230Z,38.92
2018-06-21T21:49:56.118Z,38.80
2018-06-21T21:52:24.993Z,39.18
2018-06-21T21:54:54.022Z,39.25
2018-06-21T21:57:22.840Z,39.24
2018-06-21T21:59:51.788Z,39.35
2018-06-21T22:02:20.805Z,39.03
2018-06-21T22:04:49.914Z,39.33
2018-06-21T22:07:18.666Z,39.28
2018-06-21T22:09:47.321Z,38.73
2018-06-21T22:12:16.150Z,39.01
2018-06-21T22:14:44.897Z,38.77
2018-06-21T22:17:13.636Z,38.97
2018-06-21T22:19:42.446Z,39.53
2018-06-21T22:22:11.190Z,39.30
2018-06-21T22:24:39.859Z,39.82
2018-06-21T22:27:08.666Z,39.06
2018-06-21T22:29:37.627Z,39.76
2018-06-21T22:32:06.330Z,39.32
2018-06-21T22:34:35.106Z,39.59
2018-06-21T22:37:04.246Z,39.94
2018-06-21T22:39:33.127Z,39.64
2018-06-21T22:42:01.812Z,39.58
2018-06-21T22:44:30.595Z,39.63
2018-06-21T22:46:59.465Z,40.12
2018-06-21T22:49:28.273Z,40.10
2018-06-21T22:51:56.997Z,39.78
2018-06-21T22:54:26.032Z,39.88
2018-06-21T22:56:55.049Z,40.16
2018-06-21T22:59:23.845Z,40.20
2018-06-21T23:01:52.559Z,40.79
2018-06-21T23:04:21.555Z,40.66
2018-06-21T23:06:50.320Z,41.02
2018-06-21T23:09:19.057Z,41.25
2018-06-21T23:11:47.779Z,41.34
2018-06-21T23:14:16.724Z,41.64
2018-06-21T23:16:45.514Z,41.58
2018-06-21T23:19:26.271Z,41.80
2018-06-21T23:21:55.429Z,41.80
2018-06-21T23:24:25.135Z,41.53
2018-06-21T23:26:54.269Z,41.83
2018-06-21T23:29:23.324Z,41.81
2018-06-21T23:31:52.394Z,42.28
2018-06-21T23:34:21.968Z,42.04
2018-06-21T23:36:51.505Z,41.55
2018-06-21T23:39:20.469Z,42.02
2018-06-21T23:41:49.155Z,42.16
2018-06-21T23:44:18.037Z,42.55
2018-06-21T23:46:46.782Z,42.75
2018-06-21T23:49:15.615Z,42.35
2018-06-21T23:51:44.271Z,42.59
2018-06-21T23:54:14.362Z,42.70
2018-06-21T23:56:44.628Z,42.96
2018-06-21T23:59:13.509Z,43.33
